Spring City, TN (37381)

2:49 PM EDT on May 25, 2015 (GMT -0400)
Spring City, Wolf Creek on Watts Bar Lake | | Change Station
CLOSE
Current Station
Personal Weather Station
Location: Spring City, TN
Elevation: 787 ft
Nearby Weather Stations

Elev 787 ft 35.66 °N, 84.85 °W | Updated 1 minute ago

Partly Cloudy
Partly Cloudy
81.5 °F
Feels Like 83 °F
N
2.2
Wind Variable Wind from South

Today
High -- | Low -- °F
--% Chance of Precip.
Yesterday
High -- | Low -- °F
Precip. -- in
6:27 AM 8:45 PM
Waxing Crescent, 51% visible
Pressure 30.20 in
Visibility 10.0 miles
Clouds Scattered Clouds 3400 ft
Scattered Clouds 12000 ft
Heat Index 83 °F
Dew Point 65 °F
Humidity 57%
Rainfall 0.00 in
Snow Depth Not available.
UV 10 out of 12
Pollen 6.70 out of 12
Air Quality Not available.
Flu Activity Sporadic
METAR KCSV 251753Z AUTO 16008G18KT 10SM SCT034 SCT120 24/16 A3026 RMK AO2 SLP225 T02390156 10244 20194 58006

More Conditions Fewer Conditions

Pressure 30.20 in
Visibility 10.0 miles
Clouds Scattered Clouds 3400 ft
Scattered Clouds 12000 ft
Heat Index 83 °F
Dew Point 65 °F
Humidity 57%
Rainfall 0.00 in
Snow Depth Not available.
UV 10 out of 12
Pollen 6.70 out of 12
Air Quality Not available.
Flu Activity Sporadic
METAR KCSV 251753Z AUTO 16008G18KT 10SM SCT034 SCT120 24/16 A3026 RMK AO2 SLP225 T02390156 10244 20194 58006

More Conditions Fewer Conditions

10-Day Weather Forecast

Almanac

Astronomy

May. 25, 2015 Rise Set
Actual Time
Civil Twilight
Nautical Twilight
Astronomical Twilight
Moon
Length of Visible Light
Length of Day
Tomorrow will be .
, % of the Moon is Illuminated

Today's Extremes

State Highs State Lows

Community

WunderPhotos

Upload Photos

1,824,080 photos uploaded!

WunderBlogs® & News

Nearby

Air Quality

  Air Quality AQ Index Pollutant
Not available.

Snow Depth

Station Depth Elevation

Earthquake Activity

City Distance Mag. Time & Date
Minimum magnitude displayed is 2.5.

Coastal Water Temperatures

Place Temperature

Stations

Nearby Weather Stations

Station Location Temp. Windchill Dew Point Humidity Wind Precip. Elev Updated Type